sensor_id;sensor_type;location;lat;lon;timestamp;pressure;altitude;pressure_sealevel;temperature;humidity
55068;BME280;40965;52.368;9.712;2022-12-18T00:01:32;102336.41;;;-7.22;100.00
55068;BME280;40965;52.368;9.712;2022-12-18T00:04:08;102328.03;;;-7.21;100.00
55068;BME280;40965;52.368;9.712;2022-12-18T00:06:43;102326.72;;;-7.26;100.00
55068;BME280;40965;52.368;9.712;2022-12-18T00:09:11;102316.53;;;-7.26;100.00
55068;BME280;40965;52.368;9.712;2022-12-18T00:11:38;102330.25;;;-7.24;100.00
55068;BME280;40965;52.368;9.712;2022-12-18T00:14:06;102336.09;;;-7.25;100.00
55068;BME280;40965;52.368;9.712;2022-12-18T00:16:33;102342.09;;;-7.24;100.00
55068;BME280;40965;52.368;9.712;2022-12-18T00:19:03;102352.91;;;-7.27;100.00
55068;BME280;40965;52.368;9.712;2022-12-18T00:21:31;102360.31;;;-7.20;100.00
55068;BME280;40965;52.368;9.712;2022-12-18T00:23:59;102356.75;;;-7.22;100.00
55068;BME280;40965;52.368;9.712;2022-12-18T00:26:29;102351.94;;;-7.19;100.00
55068;BME280;40965;52.368;9.712;2022-12-18T00:29:09;102358.38;;;-7.22;100.00
55068;BME280;40965;52.368;9.712;2022-12-18T00:31:41;102351.53;;;-7.23;100.00
55068;BME280;40965;52.368;9.712;2022-12-18T00:34:12;102349.31;;;-7.29;100.00
55068;BME280;40965;52.368;9.712;2022-12-18T00:36:39;102347.94;;;-7.25;100.00
55068;BME280;40965;52.368;9.712;2022-12-18T00:39:07;102343.47;;;-7.28;100.00
55068;BME280;40965;52.368;9.712;2022-12-18T00:41:34;102340.31;;;-7.25;100.00
55068;BME280;40965;52.368;9.712;2022-12-18T00:44:18;102346.44;;;-7.23;100.00
55068;BME280;40965;52.368;9.712;2022-12-18T00:46:46;102347.31;;;-7.23;100.00
55068;BME280;40965;52.368;9.712;2022-12-18T00:49:15;102348.06;;;-7.24;100.00
55068;BME280;40965;52.368;9.712;2022-12-18T00:51:44;102351.06;;;-7.19;100.00
55068;BME280;40965;52.368;9.712;2022-12-18T00:54:11;102362.59;;;-7.23;100.00
55068;BME280;40965;52.368;9.712;2022-12-18T00:56:39;102355.59;;;-7.25;100.00
55068;BME280;40965;52.368;9.712;2022-12-18T00:59:07;102357.50;;;-7.23;100.00
55068;BME280;40965;52.368;9.712;2022-12-18T01:01:39;102359.31;;;-7.22;100.00
55068;BME280;40965;52.368;9.712;2022-12-18T01:04:06;102364.41;;;-7.22;100.00
55068;BME280;40965;52.368;9.712;2022-12-18T01:06:32;102359.31;;;-7.22;100.00
55068;BME280;40965;52.368;9.712;2022-12-18T01:08:59;102348.06;;;-7.24;100.00
55068;BME280;40965;52.368;9.712;2022-12-18T01:11:26;102349.88;;;-7.23;100.00
55068;BME280;40965;52.368;9.712;2022-12-18T01:13:53;102355.09;;;-7.21;100.00
55068;BME280;40965;52.368;9.712;2022-12-18T01:16:21;102356.75;;;-7.22;100.00
55068;BME280;40965;52.368;9.712;2022-12-18T01:18:53;102350.84;;;-7.31;100.00
55068;BME280;40965;52.368;9.712;2022-12-18T01:21:22;102360.41;;;-7.28;100.00
55068;BME280;40965;52.368;9.712;2022-12-18T01:23:54;102356.06;;;-7.29;100.00
55068;BME280;40965;52.368;9.712;2022-12-18T01:26:22;102350.34;;;-7.27;100.00
55068;BME280;40965;52.368;9.712;2022-12-18T01:28:56;102353.03;;;-7.25;100.00
55068;BME280;40965;52.368;9.712;2022-12-18T01:31:27;102354.25;;;-7.31;100.00
55068;BME280;40965;52.368;9.712;2022-12-18T01:34:00;102362.38;;;-7.35;100.00
55068;BME280;40965;52.368;9.712;2022-12-18T01:36:29;102365.41;;;-7.39;100.00
55068;BME280;40965;52.368;9.712;2022-12-18T01:39:07;102365.88;;;-7.43;100.00
55068;BME280;40965;52.368;9.712;2022-12-18T01:41:37;102361.25;;;-7.47;100.00
55068;BME280;40965;52.368;9.712;2022-12-18T01:48:01;102372.50;;;-7.54;100.00
55068;BME280;40965;52.368;9.712;2022-12-18T01:50:34;102371.03;;;-7.52;100.00
55068;BME280;40965;52.368;9.712;2022-12-18T01:53:14;102370.41;;;-7.49;100.00
55068;BME280;40965;52.368;9.712;2022-12-18T01:55:56;102372.75;;;-7.42;100.00
55068;BME280;40965;52.368;9.712;2022-12-18T01:58:32;102375.59;;;-7.39;100.00
55068;BME280;40965;52.368;9.712;2022-12-18T02:01:09;102384.44;;;-7.44;100.00
55068;BME280;40965;52.368;9.712;2022-12-18T02:03:36;102380.09;;;-7.45;100.00
55068;BME280;40965;52.368;9.712;2022-12-18T02:09:13;102386.84;;;-7.45;100.00
55068;BME280;40965;52.368;9.712;2022-12-18T02:15:39;102402.41;;;-7.51;100.00
55068;BME280;40965;52.368;9.712;2022-12-18T02:18:12;102392.59;;;-7.57;100.00
55068;BME280;40965;52.368;9.712;2022-12-18T02:20:58;102386.59;;;-7.57;100.00
55068;BME280;40965;52.368;9.712;2022-12-18T02:23:41;102385.13;;;-7.64;100.00
55068;BME280;40965;52.368;9.712;2022-12-18T02:26:29;102388.59;;;-7.63;100.00
55068;BME280;40965;52.368;9.712;2022-12-18T02:29:07;102380.81;;;-7.65;100.00
55068;BME280;40965;52.368;9.712;2022-12-18T02:31:44;102392.34;;;-7.69;100.00
55068;BME280;40965;52.368;9.712;2022-12-18T02:34:14;102388.34;;;-7.75;100.00
55068;BME280;40965;52.368;9.712;2022-12-18T02:36:43;102382.22;;;-7.77;100.00
55068;BME280;40965;52.368;9.712;2022-12-18T02:39:11;102373.25;;;-7.83;100.00
55068;BME280;40965;52.368;9.712;2022-12-18T02:41:40;102376.84;;;-7.81;100.00
55068;BME280;40965;52.368;9.712;2022-12-18T02:44:09;102374.78;;;-7.85;100.00
55068;BME280;40965;52.368;9.712;2022-12-18T02:46:40;102369.53;;;-7.86;100.00
55068;BME280;40965;52.368;9.712;2022-12-18T02:49:30;102364.63;;;-7.85;100.00
55068;BME280;40965;52.368;9.712;2022-12-18T02:55:24;102364.19;;;-7.89;100.00
55068;BME280;40965;52.368;9.712;2022-12-18T02:57:55;102371.06;;;-7.88;100.00
55068;BME280;40965;52.368;9.712;2022-12-18T03:00:37;102367.19;;;-7.93;100.00
55068;BME280;40965;52.368;9.712;2022-12-18T03:03:16;102371.81;;;-7.98;100.00
55068;BME280;40965;52.368;9.712;2022-12-18T03:05:56;102368.09;;;-8.02;100.00
55068;BME280;40965;52.368;9.712;2022-12-18T03:08:33;102378.13;;;-8.03;100.00
55068;BME280;40965;52.368;9.712;2022-12-18T03:11:07;102361.72;;;-8.07;100.00
55068;BME280;40965;52.368;9.712;2022-12-18T03:13:56;102366.94;;;-8.05;100.00
55068;BME280;40965;52.368;9.712;2022-12-18T03:16:27;102366.03;;;-8.06;100.00
55068;BME280;40965;52.368;9.712;2022-12-18T03:19:01;102357.25;;;-8.09;100.00
55068;BME280;40965;52.368;9.712;2022-12-18T03:21:45;102350.38;;;-8.10;100.00
55068;BME280;40965;52.368;9.712;2022-12-18T03:24:15;102353.66;;;-8.11;100.00
55068;BME280;40965;52.368;9.712;2022-12-18T03:26:46;102351.38;;;-8.08;100.00
55068;BME280;40965;52.368;9.712;2022-12-18T03:29:27;102352.56;;;-8.05;100.00
55068;BME280;40965;52.368;9.712;2022-12-18T03:32:24;102345.69;;;-8.06;100.00
55068;BME280;40965;52.368;9.712;2022-12-18T03:34:59;102346.75;;;-8.04;100.00
55068;BME280;40965;52.368;9.712;2022-12-18T03:37:29;102357.06;;;-8.02;100.00
55068;BME280;40965;52.368;9.712;2022-12-18T03:39:56;102362.47;;;-8.08;100.00
55068;BME280;40965;52.368;9.712;2022-12-18T03:42:29;102361.84;;;-8.05;100.00
55068;BME280;40965;52.368;9.712;2022-12-18T03:45:11;102373.66;;;-8.06;100.00
55068;BME280;40965;52.368;9.712;2022-12-18T03:47:46;102366.63;;;-8.08;100.00
55068;BME280;40965;52.368;9.712;2022-12-18T03:50:44;102364.56;;;-8.12;100.00
55068;BME280;40965;52.368;9.712;2022-12-18T03:56:27;102366.34;;;-8.11;100.00
55068;BME280;40965;52.368;9.712;2022-12-18T03:58:57;102367.72;;;-8.15;100.00
55068;BME280;40965;52.368;9.712;2022-12-18T04:01:31;102375.78;;;-8.19;100.00
55068;BME280;40965;52.368;9.712;2022-12-18T04:04:01;102366.84;;;-8.24;100.00
55068;BME280;40965;52.368;9.712;2022-12-18T04:06:29;102365.34;;;-8.22;100.00
55068;BME280;40965;52.368;9.712;2022-12-18T04:08:57;102371.78;;;-8.26;100.00
55068;BME280;40965;52.368;9.712;2022-12-18T04:11:25;102370.91;;;-8.26;100.00
55068;BME280;40965;52.368;9.712;2022-12-18T04:13:55;102366.69;;;-8.26;100.00
55068;BME280;40965;52.368;9.712;2022-12-18T04:16:24;102366.97;;;-8.23;100.00
55068;BME280;40965;52.368;9.712;2022-12-18T04:18:51;102368.78;;;-8.22;100.00
55068;BME280;40965;52.368;9.712;2022-12-18T04:21:19;102365.16;;;-8.15;100.00
55068;BME280;40965;52.368;9.712;2022-12-18T04:23:46;102370.38;;;-8.14;100.00
55068;BME280;40965;52.368;9.712;2022-12-18T04:26:13;102372.31;;;-8.11;100.00
55068;BME280;40965;52.368;9.712;2022-12-18T04:28:39;102363.69;;;-8.13;100.00
55068;BME280;40965;52.368;9.712;2022-12-18T04:31:06;102360.22;;;-8.14;100.00
55068;BME280;40965;52.368;9.712;2022-12-18T04:33:33;102372.19;;;-8.12;100.00
55068;BME280;40965;52.368;9.712;2022-12-18T04:35:59;102367.25;;;-8.11;100.00
55068;BME280;40965;52.368;9.712;2022-12-18T04:38:26;102362.03;;;-8.12;100.00
55068;BME280;40965;52.368;9.712;2022-12-18T04:40:53;102360.66;;;-8.09;100.00
55068;BME280;40965;52.368;9.712;2022-12-18T04:43:19;102355.44;;;-8.10;100.00
55068;BME280;40965;52.368;9.712;2022-12-18T04:45:46;102357.84;;;-8.12;100.00
55068;BME280;40965;52.368;9.712;2022-12-18T04:48:13;102355.91;;;-8.15;100.00
55068;BME280;40965;52.368;9.712;2022-12-18T04:50:39;102353.50;;;-8.13;100.00
55068;BME280;40965;52.368;9.712;2022-12-18T04:53:06;102349.44;;;-8.11;100.00
55068;BME280;40965;52.368;9.712;2022-12-18T04:55:32;102354.53;;;-8.11;100.00
55068;BME280;40965;52.368;9.712;2022-12-18T04:57:59;102355.00;;;-8.15;100.00
55068;BME280;40965;52.368;9.712;2022-12-18T05:00:26;102350.84;;;-8.15;100.00
55068;BME280;40965;52.368;9.712;2022-12-18T05:02:53;102356.66;;;-8.16;100.00
55068;BME280;40965;52.368;9.712;2022-12-18T05:05:19;102352.19;;;-8.18;100.00
55068;BME280;40965;52.368;9.712;2022-12-18T05:07:46;102350.84;;;-8.23;100.00
55068;BME280;40965;52.368;9.712;2022-12-18T05:10:12;102353.81;;;-8.19;100.00
55068;BME280;40965;52.368;9.712;2022-12-18T05:12:39;102361.44;;;-8.19;100.00
55068;BME280;40965;52.368;9.712;2022-12-18T05:15:23;102364.16;;;-8.17;100.00
55068;BME280;40965;52.368;9.712;2022-12-18T05:17:51;102368.19;;;-8.19;100.00
55068;BME280;40965;52.368;9.712;2022-12-18T05:20:18;102368.78;;;-8.22;100.00
55068;BME280;40965;52.368;9.712;2022-12-18T05:22:44;102367.91;;;-8.22;100.00
55068;BME280;40965;52.368;9.712;2022-12-18T05:25:11;102378.34;;;-8.28;100.00
55068;BME280;40965;52.368;9.712;2022-12-18T05:27:38;102372.09;;;-8.32;100.00
55068;BME280;40965;52.368;9.712;2022-12-18T05:30:05;102372.72;;;-8.34;100.00
55068;BME280;40965;52.368;9.712;2022-12-18T05:32:32;102368.50;;;-8.34;100.00
55068;BME280;40965;52.368;9.712;2022-12-18T05:34:58;102374.78;;;-8.30;100.00
55068;BME280;40965;52.368;9.712;2022-12-18T05:37:25;102380.75;;;-8.29;100.00
55068;BME280;40965;52.368;9.712;2022-12-18T05:39:51;102382.09;;;-8.33;100.00
55068;BME280;40965;52.368;9.712;2022-12-18T05:42:18;102381.97;;;-8.35;100.00
55068;BME280;40965;52.368;9.712;2022-12-18T05:44:44;102388.22;;;-8.31;100.00
55068;BME280;40965;52.368;9.712;2022-12-18T05:47:11;102392.44;;;-8.32;100.00
55068;BME280;40965;52.368;9.712;2022-12-18T05:49:37;102382.88;;;-8.34;100.00
55068;BME280;40965;52.368;9.712;2022-12-18T05:52:04;102395.41;;;-8.36;100.00
55068;BME280;40965;52.368;9.712;2022-12-18T05:54:31;102396.59;;;-8.32;100.00
55068;BME280;40965;52.368;9.712;2022-12-18T05:56:58;102396.72;;;-8.22;100.00
55068;BME280;40965;52.368;9.712;2022-12-18T05:59:24;102397.78;;;-8.20;100.00
55068;BME280;40965;52.368;9.712;2022-12-18T06:01:51;102396.41;;;-8.16;100.00
55068;BME280;40965;52.368;9.712;2022-12-18T06:04:18;102397.59;;;-8.12;100.00
55068;BME280;40965;52.368;9.712;2022-12-18T06:06:44;102389.97;;;-8.12;100.00
55068;BME280;40965;52.368;9.712;2022-12-18T06:09:11;102389.97;;;-8.12;100.00
55068;BME280;40965;52.368;9.712;2022-12-18T06:11:38;102392.38;;;-8.14;100.00
55068;BME280;40965;52.368;9.712;2022-12-18T06:14:06;102392.09;;;-8.17;100.00
55068;BME280;40965;52.368;9.712;2022-12-18T06:16:33;102396.41;;;-8.16;100.00
55068;BME280;40965;52.368;9.712;2022-12-18T06:19:02;102406.28;;;-8.19;100.00
55068;BME280;40965;52.368;9.712;2022-12-18T06:21:31;102400.63;;;-8.25;100.00
55068;BME280;40965;52.368;9.712;2022-12-18T06:23:59;102401.22;;;-8.28;100.00
55068;BME280;40965;52.368;9.712;2022-12-18T06:26:26;102400.00;;;-8.23;100.00
55068;BME280;40965;52.368;9.712;2022-12-18T06:28:52;102397.31;;;-8.16;100.00
55068;BME280;40965;52.368;9.712;2022-12-18T06:31:19;102403.28;;;-8.15;100.00
55068;BME280;40965;52.368;9.712;2022-12-18T06:33:46;102389.69;;;-8.16;100.00
55068;BME280;40965;52.368;9.712;2022-12-18T06:36:13;102395.19;;;-8.11;100.00
55068;BME280;40965;52.368;9.712;2022-12-18T06:38:42;102394.44;;;-8.10;100.00
55068;BME280;40965;52.368;9.712;2022-12-18T06:41:11;102397.91;;;-8.09;100.00
55068;BME280;40965;52.368;9.712;2022-12-18T06:43:39;102400.72;;;-8.06;100.00
55068;BME280;40965;52.368;9.712;2022-12-18T06:46:06;102404.16;;;-8.06;100.00
55068;BME280;40965;52.368;9.712;2022-12-18T06:48:33;102407.59;;;-8.05;100.00
55068;BME280;40965;52.368;9.712;2022-12-18T06:51:00;102412.81;;;-8.04;100.00
55068;BME280;40965;52.368;9.712;2022-12-18T06:53:27;102411.31;;;-8.02;100.00
55068;BME280;40965;52.368;9.712;2022-12-18T06:58:32;102408.03;;;-8.01;100.00
55068;BME280;40965;52.368;9.712;2022-12-18T07:01:00;102414.03;;;-8.00;100.00
55068;BME280;40965;52.368;9.712;2022-12-18T07:03:28;102415.78;;;-7.99;100.00
55068;BME280;40965;52.368;9.712;2022-12-18T07:05:54;102420.25;;;-7.97;100.00
55068;BME280;40965;52.368;9.712;2022-12-18T07:08:21;102420.84;;;-7.90;100.00
55068;BME280;40965;52.368;9.712;2022-12-18T07:10:47;102422.50;;;-7.91;100.00
55068;BME280;40965;52.368;9.712;2022-12-18T07:13:16;102420.97;;;-7.89;100.00
55068;BME280;40965;52.368;9.712;2022-12-18T07:15:43;102425.03;;;-7.91;100.00
55068;BME280;40965;52.368;9.712;2022-12-18T07:18:10;102436.81;;;-7.83;100.00
55068;BME280;40965;52.368;9.712;2022-12-18T07:20:37;102441.44;;;-7.78;100.00
55068;BME280;40965;52.368;9.712;2022-12-18T07:23:04;102441.56;;;-7.77;100.00
55068;BME280;40965;52.368;9.712;2022-12-18T07:25:36;102442.34;;;-7.78;100.00
55068;BME280;40965;52.368;9.712;2022-12-18T07:28:04;102438.91;;;-7.78;100.00
55068;BME280;40965;52.368;9.712;2022-12-18T07:30:31;102443.38;;;-7.76;100.00
55068;BME280;40965;52.368;9.712;2022-12-18T07:32:57;102442.63;;;-7.75;100.00
55068;BME280;40965;52.368;9.712;2022-12-18T07:35:24;102445.78;;;-7.77;100.00
55068;BME280;40965;52.368;9.712;2022-12-18T07:37:51;102452.06;;;-7.83;100.00
55068;BME280;40965;52.368;9.712;2022-12-18T07:40:18;102455.97;;;-7.86;100.00
55068;BME280;40965;52.368;9.712;2022-12-18T07:42:45;102452.88;;;-7.92;100.00
55068;BME280;40965;52.368;9.712;2022-12-18T07:45:12;102466.00;;;-7.97;100.00
55068;BME280;40965;52.368;9.712;2022-12-18T07:47:38;102464.38;;;-7.96;100.00
55068;BME280;40965;52.368;9.712;2022-12-18T07:50:06;102473.34;;;-8.00;100.00
55068;BME280;40965;52.368;9.712;2022-12-18T07:52:33;102464.38;;;-7.96;100.00
55068;BME280;40965;52.368;9.712;2022-12-18T07:55:00;102462.13;;;-7.93;100.00
55068;BME280;40965;52.368;9.712;2022-12-18T07:57:27;102456.91;;;-7.94;100.00
55068;BME280;40965;52.368;9.712;2022-12-18T07:59:53;102453.00;;;-7.91;100.00
55068;BME280;40965;52.368;9.712;2022-12-18T08:02:20;102448.34;;;-7.86;100.00
55068;BME280;40965;52.368;9.712;2022-12-18T08:04:47;102437.41;;;-7.76;100.00
55068;BME280;40965;52.368;9.712;2022-12-18T08:07:13;102447.09;;;-7.72;100.00
55068;BME280;40965;52.368;9.712;2022-12-18T08:09:51;102438.25;;;-7.67;100.00
55068;BME280;40965;52.368;9.712;2022-12-18T08:12:17;102433.63;;;-7.62;100.00
55068;BME280;40965;52.368;9.712;2022-12-18T08:14:44;102433.28;;;-7.57;100.00
55068;BME280;40965;52.368;9.712;2022-12-18T08:17:11;102438.66;;;-7.54;100.00
55068;BME280;40965;52.368;9.712;2022-12-18T08:19:38;102437.28;;;-7.50;100.00
55068;BME280;40965;52.368;9.712;2022-12-18T08:22:05;102436.06;;;-7.45;100.00
55068;BME280;40965;52.368;9.712;2022-12-18T08:24:32;102429.63;;;-7.41;100.00
55068;BME280;40965;52.368;9.712;2022-12-18T08:26:58;102433.34;;;-7.38;100.00
55068;BME280;40965;52.368;9.712;2022-12-18T08:29:25;102433.63;;;-7.35;100.00
55068;BME280;40965;52.368;9.712;2022-12-18T08:31:52;102430.13;;;-7.26;100.00
55068;BME280;40965;52.368;9.712;2022-12-18T08:34:27;102431.16;;;-7.24;100.00
55068;BME280;40965;52.368;9.712;2022-12-18T08:36:54;102424.38;;;-7.15;100.00
55068;BME280;40965;52.368;9.712;2022-12-18T08:39:21;102416.53;;;-7.08;100.00
55068;BME280;40965;52.368;9.712;2022-12-18T08:41:47;102413.66;;;-7.02;100.00
55068;BME280;40965;52.368;9.712;2022-12-18T08:44:28;102411.94;;;-6.93;100.00
55068;BME280;40965;52.368;9.712;2022-12-18T08:47:05;102413.25;;;-6.88;100.00
55068;BME280;40965;52.368;9.712;2022-12-18T08:49:33;102410.97;;;-6.85;100.00
55068;BME280;40965;52.368;9.712;2022-12-18T08:52:00;102411.09;;;-6.83;100.00
55068;BME280;40965;52.368;9.712;2022-12-18T08:54:28;102413.44;;;-6.76;100.00
55068;BME280;40965;52.368;9.712;2022-12-18T08:56:55;102411.34;;;-6.71;100.00
55068;BME280;40965;52.368;9.712;2022-12-18T08:59:22;102416.81;;;-6.67;100.00
55068;BME280;40965;52.368;9.712;2022-12-18T09:01:49;102412.41;;;-6.59;100.00
55068;BME280;40965;52.368;9.712;2022-12-18T09:04:16;102406.44;;;-6.59;100.00
55068;BME280;40965;52.368;9.712;2022-12-18T09:06:42;102412.84;;;-6.54;100.00
55068;BME280;40965;52.368;9.712;2022-12-18T09:09:09;102412.72;;;-6.45;100.00
55068;BME280;40965;52.368;9.712;2022-12-18T09:11:36;102412.53;;;-6.38;100.00
55068;BME280;40965;52.368;9.712;2022-12-18T09:14:03;102412.44;;;-6.29;100.00
55068;BME280;40965;52.368;9.712;2022-12-18T09:16:31;102395.00;;;-6.25;100.00
55068;BME280;40965;52.368;9.712;2022-12-18T09:19:00;102398.34;;;-6.16;100.00
55068;BME280;40965;52.368;9.712;2022-12-18T09:21:32;102387.00;;;-6.09;100.00
55068;BME280;40965;52.368;9.712;2022-12-18T09:24:00;102384.88;;;-6.04;100.00
55068;BME280;40965;52.368;9.712;2022-12-18T09:26:27;102386.91;;;-6.00;100.00
55068;BME280;40965;52.368;9.712;2022-12-18T09:28:54;102393.06;;;-5.98;100.00
55068;BME280;40965;52.368;9.712;2022-12-18T09:31:22;102383.06;;;-5.95;100.00
55068;BME280;40965;52.368;9.712;2022-12-18T09:33:51;102388.41;;;-5.92;100.00
55068;BME280;40965;52.368;9.712;2022-12-18T09:36:18;102387.53;;;-5.92;100.00
55068;BME280;40965;52.368;9.712;2022-12-18T09:38:45;102395.22;;;-5.82;100.00
55068;BME280;40965;52.368;9.712;2022-12-18T09:41:36;102390.16;;;-5.72;100.00
55068;BME280;40965;52.368;9.712;2022-12-18T09:44:17;102390.53;;;-5.57;100.00
55068;BME280;40965;52.368;9.712;2022-12-18T09:47:05;102399.47;;;-5.41;100.00
55068;BME280;40965;52.368;9.712;2022-12-18T09:49:42;102396.19;;;-5.20;99.36
55068;BME280;40965;52.368;9.712;2022-12-18T09:52:26;102405.25;;;-5.03;99.03
55068;BME280;40965;52.368;9.712;2022-12-18T09:57:31;102410.03;;;-4.75;96.89
55068;BME280;40965;52.368;9.712;2022-12-18T10:00:08;102408.50;;;-4.62;95.84
55068;BME280;40965;52.368;9.712;2022-12-18T10:02:41;102401.81;;;-4.50;94.95
55068;BME280;40965;52.368;9.712;2022-12-18T10:05:13;102399.00;;;-4.43;94.52
55068;BME280;40965;52.368;9.712;2022-12-18T10:07:55;102405.72;;;-4.33;93.54
55068;BME280;40965;52.368;9.712;2022-12-18T10:10:50;102411.69;;;-4.22;93.08
55068;BME280;40965;52.368;9.712;2022-12-18T10:16:19;102417.06;;;-3.97;91.62
55068;BME280;40965;52.368;9.712;2022-12-18T10:25:36;102409.56;;;-3.61;89.47
55068;BME280;40965;52.368;9.712;2022-12-18T10:28:16;102412.38;;;-3.58;89.04
55068;BME280;40965;52.368;9.712;2022-12-18T10:30:44;102405.81;;;-3.55;88.83
55068;BME280;40965;52.368;9.712;2022-12-18T10:33:24;102404.50;;;-3.50;88.48
55068;BME280;40965;52.368;9.712;2022-12-18T10:35:55;102407.44;;;-3.45;88.96
55068;BME280;40965;52.368;9.712;2022-12-18T10:38:25;102401.09;;;-3.38;88.84
55068;BME280;40965;52.368;9.712;2022-12-18T10:40:57;102401.47;;;-3.34;88.17
55068;BME280;40965;52.368;9.712;2022-12-18T10:43:28;102405.47;;;-3.25;88.42
55068;BME280;40965;52.368;9.712;2022-12-18T10:48:55;102391.84;;;-3.02;87.81
55068;BME280;40965;52.368;9.712;2022-12-18T10:51:33;102388.06;;;-2.95;86.64
55068;BME280;40965;52.368;9.712;2022-12-18T10:54:05;102388.16;;;-2.94;86.41
55068;BME280;40965;52.368;9.712;2022-12-18T10:56:45;102381.59;;;-2.90;85.75
55068;BME280;40965;52.368;9.712;2022-12-18T10:59:14;102374.91;;;-2.88;87.18
55068;BME280;40965;52.368;9.712;2022-12-18T11:01:51;102363.31;;;-2.83;85.96
55068;BME280;40965;52.368;9.712;2022-12-18T11:04:30;102357.78;;;-2.77;85.81
55068;BME280;40965;52.368;9.712;2022-12-18T11:07:00;102347.94;;;-2.71;85.52
55068;BME280;40965;52.368;9.712;2022-12-18T11:09:36;102334.91;;;-2.62;85.25
55068;BME280;40965;52.368;9.712;2022-12-18T11:12:15;102342.56;;;-2.51;84.33
55068;BME280;40965;52.368;9.712;2022-12-18T11:14:51;102353.50;;;-2.41;83.64
55068;BME280;40965;52.368;9.712;2022-12-18T11:17:31;102363.41;;;-2.34;83.00
55068;BME280;40965;52.368;9.712;2022-12-18T11:20:01;102359.16;;;-2.34;82.84
55068;BME280;40965;52.368;9.712;2022-12-18T11:22:33;102364.09;;;-2.37;82.85
55068;BME280;40965;52.368;9.712;2022-12-18T11:25:07;102363.06;;;-2.39;82.52
55068;BME280;40965;52.368;9.712;2022-12-18T11:27:50;102367.44;;;-2.38;83.54
55068;BME280;40965;52.368;9.712;2022-12-18T11:30:30;102364.00;;;-2.38;83.11
55068;BME280;40965;52.368;9.712;2022-12-18T11:33:19;102357.84;;;-2.40;82.79
55068;BME280;40965;52.368;9.712;2022-12-18T11:35:57;102353.63;;;-2.40;83.54
55068;BME280;40965;52.368;9.712;2022-12-18T11:38:31;102353.50;;;-2.41;83.58
55068;BME280;40965;52.368;9.712;2022-12-18T11:44:24;102343.50;;;-2.50;83.65
55068;BME280;40965;52.368;9.712;2022-12-18T11:46:59;102330.91;;;-2.59;84.31
55068;BME280;40965;52.368;9.712;2022-12-18T11:49:35;102322.31;;;-2.59;84.78
55068;BME280;40965;52.368;9.712;2022-12-18T11:52:09;102314.63;;;-2.59;84.78
55068;BME280;40965;52.368;9.712;2022-12-18T11:54:45;102304.69;;;-2.55;85.36
55068;BME280;40965;52.368;9.712;2022-12-18T11:57:34;102291.53;;;-2.47;84.99
55068;BME280;40965;52.368;9.712;2022-12-18T12:00:27;102283.16;;;-2.45;85.40
55068;BME280;40965;52.368;9.712;2022-12-18T12:05:46;102281.19;;;-2.24;83.86
55068;BME280;40965;52.368;9.712;2022-12-18T12:08:58;102272.56;;;-2.12;82.14
55068;BME280;40965;52.368;9.712;2022-12-18T12:11:37;102262.03;;;-2.04;81.29
55068;BME280;40965;52.368;9.712;2022-12-18T12:14:23;102251.50;;;-1.95;79.85
55068;BME280;40965;52.368;9.712;2022-12-18T12:17:00;102256.47;;;-1.85;79.86
55068;BME280;40965;52.368;9.712;2022-12-18T12:19:52;102264.28;;;-1.83;78.68
55068;BME280;40965;52.368;9.712;2022-12-18T12:27:08;102240.59;;;-1.79;77.20
55068;BME280;40965;52.368;9.712;2022-12-18T12:30:19;102246.63;;;-1.78;77.72
55068;BME280;40965;52.368;9.712;2022-12-18T12:39:18;102233.13;;;-1.62;76.95
55068;BME280;40965;52.368;9.712;2022-12-18T12:41:49;102228.28;;;-1.58;76.89
55068;BME280;40965;52.368;9.712;2022-12-18T12:44:49;102238.28;;;-1.49;76.18
55068;BME280;40965;52.368;9.712;2022-12-18T12:53:57;102205.97;;;-1.45;74.87
55068;BME280;40965;52.368;9.712;2022-12-18T12:56:39;102221.22;;;-1.48;75.21
55068;BME280;40965;52.368;9.712;2022-12-18T13:05:41;102226.53;;;-1.59;75.34
55068;BME280;40965;52.368;9.712;2022-12-18T13:08:26;102211.00;;;-1.60;75.07
55068;BME280;40965;52.368;9.712;2022-12-18T13:10:58;102198.97;;;-1.61;75.12
55068;BME280;40965;52.368;9.712;2022-12-18T13:13:54;102195.50;;;-1.62;74.62
55068;BME280;40965;52.368;9.712;2022-12-18T13:16:25;102207.25;;;-1.65;75.08
55068;BME280;40965;52.368;9.712;2022-12-18T13:18:59;102203.59;;;-1.69;74.94
55068;BME280;40965;52.368;9.712;2022-12-18T13:21:33;102220.56;;;-1.71;74.06
55068;BME280;40965;52.368;9.712;2022-12-18T13:24:31;102227.97;;;-1.76;75.14
55068;BME280;40965;52.368;9.712;2022-12-18T13:36:30;102224.38;;;-1.91;75.97
55068;BME280;40965;52.368;9.712;2022-12-18T13:41:41;102212.69;;;-2.00;76.04
55068;BME280;40965;52.368;9.712;2022-12-18T13:44:17;102216.06;;;-2.01;75.98
55068;BME280;40965;52.368;9.712;2022-12-18T13:46:51;102211.72;;;-2.02;75.77
55068;BME280;40965;52.368;9.712;2022-12-18T13:49:24;102211.38;;;-2.06;76.62
55068;BME280;40965;52.368;9.712;2022-12-18T13:51:55;102196.38;;;-2.13;76.95
55068;BME280;40965;52.368;9.712;2022-12-18T13:54:40;102200.22;;;-2.20;77.65
55068;BME280;40965;52.368;9.712;2022-12-18T13:57:35;102194.56;;;-2.28;77.45
55068;BME280;40965;52.368;9.712;2022-12-18T14:02:48;102186.59;;;-2.44;77.29
55068;BME280;40965;52.368;9.712;2022-12-18T14:05:27;102186.16;;;-2.51;77.54
55068;BME280;40965;52.368;9.712;2022-12-18T14:08:17;102181.50;;;-2.56;77.86
55068;BME280;40965;52.368;9.712;2022-12-18T14:10:46;102181.84;;;-2.63;78.10
55068;BME280;40965;52.368;9.712;2022-12-18T14:13:37;102173.88;;;-2.68;78.71
55068;BME280;40965;52.368;9.712;2022-12-18T14:16:07;102157.38;;;-2.72;78.81
55068;BME280;40965;52.368;9.712;2022-12-18T14:18:52;102156.25;;;-2.75;78.97
55068;BME280;40965;52.368;9.712;2022-12-18T14:21:28;102154.38;;;-2.78;79.67
55068;BME280;40965;52.368;9.712;2022-12-18T14:24:27;102153.16;;;-2.83;79.57
55068;BME280;40965;52.368;9.712;2022-12-18T14:27:12;102141.03;;;-2.86;79.49
55068;BME280;40965;52.368;9.712;2022-12-18T14:29:46;102149.28;;;-2.90;80.13